createdAt,value
2023-02-04T00:02:35.955Z,76.45
2023-02-04T00:05:21.951Z,76.98
2023-02-04T00:08:08.262Z,75.79
2023-02-04T00:10:53.413Z,76.08
2023-02-04T00:13:39.057Z,75.38
2023-02-04T00:16:24.386Z,75.94
2023-02-04T00:19:09.736Z,75.38
2023-02-04T00:21:54.895Z,75.24
2023-02-04T00:24:40.824Z,75.77
2023-02-04T00:27:26.269Z,74.89
2023-02-04T00:30:12.318Z,74.70
2023-02-04T00:32:59.471Z,74.63
2023-02-04T00:35:45.009Z,73.90
2023-02-04T00:38:30.213Z,74.68
2023-02-04T00:41:15.607Z,74.61
2023-02-04T00:44:00.870Z,73.73
2023-02-04T00:46:48.386Z,74.21
2023-02-04T00:49:34.964Z,73.84
2023-02-04T00:52:20.653Z,73.91
2023-02-04T00:55:07.991Z,74.41
2023-02-04T00:57:53.395Z,74.66
2023-02-04T01:00:38.668Z,73.47
2023-02-04T01:03:24.117Z,73.09
2023-02-04T01:06:09.582Z,72.49
2023-02-04T01:08:54.869Z,72.68
2023-02-04T01:11:41.934Z,72.99
2023-02-04T01:14:27.497Z,73.67
2023-02-04T01:17:12.863Z,73.18
2023-02-04T01:19:58.197Z,72.74
2023-02-04T01:22:43.657Z,73.66
2023-02-04T01:25:29.128Z,72.97
2023-02-04T01:28:14.838Z,73.23
2023-02-04T01:31:01.143Z,73.10
2023-02-04T01:33:46.653Z,73.41
2023-02-04T01:36:31.987Z,73.03
2023-02-04T01:39:17.786Z,74.04
2023-02-04T01:42:05.716Z,73.50
2023-02-04T01:44:52.058Z,73.37
2023-02-04T01:47:40.375Z,73.00
2023-02-04T01:50:26.581Z,73.00
2023-02-04T01:53:12.029Z,73.21
2023-02-04T01:55:57.447Z,73.72
2023-02-04T01:58:43.636Z,73.93
2023-02-04T02:01:42.029Z,73.85
2023-02-04T02:04:31.587Z,73.48
2023-02-04T02:07:20.024Z,74.29
2023-02-04T02:10:07.505Z,73.75
2023-02-04T02:12:56.016Z,73.42
2023-02-04T02:15:42.009Z,73.71
2023-02-04T02:18:27.536Z,73.59
2023-02-04T02:21:15.327Z,73.59
2023-02-04T02:24:03.687Z,73.83
2023-02-04T02:26:49.240Z,74.68
2023-02-04T02:29:37.826Z,73.94
2023-02-04T02:32:23.251Z,73.69
2023-02-04T02:35:11.228Z,73.44
2023-02-04T02:37:57.122Z,73.97
2023-02-04T02:40:43.261Z,73.38
2023-02-04T02:43:29.638Z,74.18
2023-02-04T02:46:15.100Z,74.59
2023-02-04T02:49:00.482Z,74.27
2023-02-04T02:51:46.609Z,74.63
2023-02-04T02:54:32.392Z,74.32
2023-02-04T02:57:23.246Z,75.32
2023-02-04T03:00:18.063Z,74.41
2023-02-04T03:03:12.778Z,75.04
2023-02-04T03:06:03.719Z,74.73
2023-02-04T03:08:52.715Z,74.43
2023-02-04T03:11:38.599Z,74.56
2023-02-04T03:14:25.458Z,74.56
2023-02-04T03:17:11.863Z,74.84
2023-02-04T03:19:57.225Z,75.29
2023-02-04T03:22:42.688Z,75.53
2023-02-04T03:25:31.276Z,75.43
2023-02-04T03:28:16.731Z,76.08
2023-02-04T03:31:02.257Z,76.57
2023-02-04T03:33:47.873Z,77.20
2023-02-04T03:36:33.336Z,77.70
2023-02-04T03:39:18.697Z,77.28
2023-02-04T03:42:04.090Z,77.99
2023-02-04T03:44:49.439Z,78.46
2023-02-04T03:47:34.749Z,78.43
2023-02-04T03:50:20.068Z,78.32
2023-02-04T03:53:05.332Z,79.29
2023-02-04T03:55:50.696Z,78.77
2023-02-04T03:58:36.210Z,78.14
2023-02-04T04:01:21.774Z,78.92
2023-02-04T04:04:07.042Z,78.31
2023-02-04T04:06:52.508Z,78.63
2023-02-04T04:09:37.838Z,78.38
2023-02-04T04:12:23.567Z,78.27
2023-02-04T04:15:09.218Z,77.78
2023-02-04T04:17:54.593Z,77.48
2023-02-04T04:20:39.796Z,77.42
2023-02-04T04:23:25.322Z,77.26
2023-02-04T04:26:10.893Z,77.12
2023-02-04T04:28:56.244Z,77.00
2023-02-04T04:31:41.635Z,76.92
2023-02-04T04:34:27.135Z,76.90
2023-02-04T04:37:12.773Z,75.63
2023-02-04T04:39:58.253Z,75.50
2023-02-04T04:42:43.618Z,75.55
2023-02-04T04:45:29.064Z,75.50
2023-02-04T04:48:14.278Z,75.02
2023-02-04T04:50:59.750Z,75.21
2023-02-04T04:53:45.016Z,74.94
2023-02-04T04:56:30.371Z,74.87
2023-02-04T04:59:15.852Z,74.92
2023-02-04T05:02:01.115Z,75.15
2023-02-04T05:04:46.554Z,75.08
2023-02-04T05:07:31.890Z,74.87
2023-02-04T05:10:17.757Z,74.69
2023-02-04T05:13:03.286Z,74.82
2023-02-04T05:15:48.610Z,74.83
2023-02-04T05:18:34.032Z,74.64
2023-02-04T05:21:19.201Z,75.11
2023-02-04T05:24:06.542Z,75.08
2023-02-04T05:26:51.934Z,74.86
2023-02-04T05:29:37.256Z,74.92
2023-02-04T05:32:22.550Z,75.55
2023-02-04T05:35:08.204Z,75.95
2023-02-04T05:37:53.598Z,75.88
2023-02-04T05:40:39.038Z,75.53
2023-02-04T05:43:24.243Z,75.70
2023-02-04T05:46:09.844Z,75.19
2023-02-04T05:48:55.295Z,76.52
2023-02-04T05:51:41.014Z,75.39
2023-02-04T05:54:26.586Z,75.76
2023-02-04T05:57:12.025Z,75.60
2023-02-04T05:59:57.383Z,76.14
2023-02-04T06:02:42.728Z,74.43
2023-02-04T06:05:28.009Z,75.01
2023-02-04T06:08:15.960Z,74.81
2023-02-04T06:11:01.463Z,74.14
2023-02-04T06:13:47.106Z,74.19
2023-02-04T06:16:32.739Z,74.31
2023-02-04T06:19:18.146Z,73.90
2023-02-04T06:22:03.448Z,73.31
2023-02-04T06:24:48.720Z,73.34
2023-02-04T06:27:34.247Z,73.25
2023-02-04T06:30:19.696Z,73.45
2023-02-04T06:33:05.044Z,73.28
2023-02-04T06:35:50.651Z,73.14
2023-02-04T06:38:36.122Z,73.55
2023-02-04T06:41:21.576Z,73.42
2023-02-04T06:44:06.702Z,73.54
2023-02-04T06:46:52.222Z,73.52
2023-02-04T06:49:37.470Z,74.16
2023-02-04T06:52:22.831Z,73.92
2023-02-04T06:55:09.120Z,73.87
2023-02-04T06:57:54.363Z,73.62
2023-02-04T07:00:39.753Z,73.70
2023-02-04T07:03:25.180Z,73.49
2023-02-04T07:06:10.527Z,73.64
2023-02-04T07:08:55.905Z,73.60
2023-02-04T07:11:41.323Z,73.40
2023-02-04T07:14:27.016Z,72.90
2023-02-04T07:17:12.367Z,72.82
2023-02-04T07:19:59.317Z,73.25
2023-02-04T07:22:44.782Z,73.04
2023-02-04T07:25:30.226Z,72.46
2023-02-04T07:28:15.671Z,71.70
2023-02-04T07:31:01.062Z,72.46
2023-02-04T07:33:46.444Z,72.91
2023-02-04T07:36:31.788Z,72.41
2023-02-04T07:39:17.154Z,72.98
2023-02-04T07:42:02.618Z,73.11
2023-02-04T07:44:54.484Z,72.81
2023-02-04T07:47:39.778Z,72.83
2023-02-04T07:50:25.201Z,72.63
2023-02-04T07:53:10.539Z,72.46
2023-02-04T07:55:55.927Z,72.07
2023-02-04T07:58:41.188Z,72.48
2023-02-04T08:01:26.501Z,72.17
2023-02-04T08:04:12.085Z,71.57
2023-02-04T08:06:57.580Z,71.37
2023-02-04T08:09:43.206Z,71.60
2023-02-04T08:12:29.333Z,72.14
2023-02-04T08:15:14.974Z,72.02
2023-02-04T08:18:00.289Z,72.67
2023-02-04T08:20:45.629Z,72.60
2023-02-04T08:23:31.071Z,73.07
2023-02-04T08:26:16.499Z,72.51
2023-02-04T08:29:01.724Z,73.03
2023-02-04T08:31:47.877Z,73.00
2023-02-04T08:34:33.405Z,73.07
2023-02-04T08:37:18.926Z,74.00
2023-02-04T08:40:04.656Z,73.41
2023-02-04T08:42:50.279Z,72.75
2023-02-04T08:45:35.722Z,72.94
2023-02-04T08:48:21.148Z,73.14
2023-02-04T08:51:06.520Z,73.61
2023-02-04T08:53:51.804Z,73.15
2023-02-04T08:56:38.024Z,72.46
2023-02-04T08:59:24.436Z,72.37
2023-02-04T09:02:10.762Z,73.01
2023-02-04T09:04:56.573Z,72.76
2023-02-04T09:07:42.052Z,72.34
2023-02-04T09:10:27.901Z,72.70
2023-02-04T09:13:14.429Z,72.26
2023-02-04T09:15:59.770Z,71.53
2023-02-04T09:18:45.009Z,72.02
2023-02-04T09:21:31.507Z,71.66
2023-02-04T09:24:16.796Z,71.07
2023-02-04T09:27:02.438Z,69.55
2023-02-04T09:29:48.068Z,68.87
2023-02-04T09:32:33.428Z,69.09
2023-02-04T09:35:18.866Z,68.76
2023-02-04T09:38:05.003Z,69.74
2023-02-04T09:40:56.120Z,69.55
2023-02-04T09:43:45.082Z,68.70
2023-02-04T09:46:33.001Z,69.13
2023-02-04T09:49:18.564Z,67.92
2023-02-04T09:52:04.107Z,67.82
2023-02-04T09:54:49.763Z,68.35
2023-02-04T09:57:35.339Z,68.00
2023-02-04T10:00:24.558Z,68.58
2023-02-04T10:03:18.948Z,68.77
2023-02-04T10:06:04.960Z,68.94
2023-02-04T10:08:52.065Z,68.16
2023-02-04T10:11:40.368Z,68.97
2023-02-04T10:14:26.081Z,68.02
2023-02-04T10:17:15.745Z,66.49
2023-02-04T10:20:01.351Z,65.60
2023-02-04T10:22:52.440Z,65.70
2023-02-04T10:25:37.831Z,65.50
2023-02-04T10:28:33.627Z,66.18
2023-02-04T10:31:37.773Z,65.39
2023-02-04T10:34:40.154Z,65.44
2023-02-04T10:37:26.348Z,65.58
2023-02-04T10:40:28.458Z,64.53
2023-02-04T10:43:20.523Z,64.84
2023-02-04T10:46:06.106Z,64.69
2023-02-04T10:48:51.234Z,63.22
2023-02-04T10:51:36.731Z,64.25
2023-02-04T10:54:32.147Z,64.09
2023-02-04T10:57:24.472Z,63.28
2023-02-04T11:00:36.042Z,62.76
2023-02-04T11:03:26.859Z,63.48
2023-02-04T11:06:15.846Z,62.45
2023-02-04T11:09:01.698Z,62.52
2023-02-04T11:11:49.268Z,62.71
2023-02-04T11:14:35.318Z,62.64
2023-02-04T11:17:21.543Z,63.50
2023-02-04T11:20:30.244Z,62.16
2023-02-04T11:23:27.625Z,61.10
2023-02-04T11:26:20.289Z,61.55
2023-02-04T11:29:05.545Z,63.02
2023-02-04T11:31:50.951Z,62.54
2023-02-04T11:34:49.504Z,62.17
2023-02-04T11:37:38.627Z,62.19
2023-02-04T11:40:34.416Z,62.47
2023-02-04T11:43:21.682Z,62.51
2023-02-04T11:46:15.746Z,62.09
2023-02-04T11:49:01.668Z,62.95
2023-02-04T11:51:47.366Z,61.56
2023-02-04T11:54:32.643Z,63.67
2023-02-04T11:57:17.965Z,62.16
2023-02-04T12:00:03.592Z,62.18
2023-02-04T12:02:56.180Z,60.15
2023-02-04T12:05:43.903Z,59.85
2023-02-04T12:08:35.113Z,61.12
2023-02-04T12:11:30.628Z,61.29
2023-02-04T12:14:17.889Z,61.45
2023-02-04T12:17:21.654Z,61.76
2023-02-04T12:20:07.253Z,62.03
2023-02-04T12:22:53.323Z,61.33
2023-02-04T12:25:39.165Z,61.73
2023-02-04T12:28:25.032Z,61.18
2023-02-04T12:31:10.850Z,60.80
2023-02-04T12:34:00.135Z,61.14
2023-02-04T12:36:45.687Z,62.00
2023-02-04T12:39:32.070Z,60.73
2023-02-04T12:42:17.445Z,60.55
2023-02-04T12:45:02.796Z,60.82
2023-02-04T12:47:48.216Z,60.49
2023-02-04T12:50:33.447Z,60.12
2023-02-04T12:53:18.716Z,61.45
2023-02-04T12:56:04.600Z,61.82
2023-02-04T12:58:50.015Z,61.13
2023-02-04T13:01:35.758Z,61.44
2023-02-04T13:04:21.064Z,59.30
2023-02-04T13:07:07.937Z,59.91
2023-02-04T13:09:53.764Z,60.12
2023-02-04T13:12:39.740Z,59.59
2023-02-04T13:15:25.328Z,59.79
2023-02-04T13:18:10.647Z,59.63
2023-02-04T13:20:55.879Z,58.69
2023-02-04T13:23:41.491Z,59.89
2023-02-04T13:26:27.070Z,59.25
2023-02-04T13:29:13.203Z,58.79
2023-02-04T13:31:58.841Z,59.37
2023-02-04T13:34:44.176Z,60.17
2023-02-04T13:37:29.595Z,59.84
2023-02-04T13:40:15.012Z,60.16
2023-02-04T13:43:00.357Z,60.58
2023-02-04T13:45:47.903Z,60.24
2023-02-04T13:48:33.115Z,60.26
2023-02-04T13:51:18.738Z,61.13
2023-02-04T13:54:04.218Z,60.65
2023-02-04T13:56:49.865Z,61.75
2023-02-04T13:59:35.415Z,60.47
2023-02-04T14:02:21.333Z,60.51
2023-02-04T14:05:06.990Z,60.00
2023-02-04T14:07:52.639Z,60.87
2023-02-04T14:10:38.864Z,61.16
2023-02-04T14:13:24.911Z,61.34
2023-02-04T14:16:10.293Z,57.88
2023-02-04T14:18:55.722Z,57.11
2023-02-04T14:21:41.069Z,57.72
2023-02-04T14:24:26.568Z,57.68
2023-02-04T14:27:11.913Z,57.14
2023-02-04T14:29:57.254Z,57.75
2023-02-04T14:32:42.648Z,58.12
2023-02-04T14:35:28.315Z,57.15
2023-02-04T14:38:16.099Z,58.48
2023-02-04T14:41:01.427Z,56.87
2023-02-04T14:43:47.232Z,58.49
2023-02-04T14:46:32.997Z,58.00
2023-02-04T14:49:18.373Z,58.25
2023-02-04T14:52:04.601Z,58.55
2023-02-04T14:54:50.073Z,59.26
2023-02-04T14:57:35.389Z,59.56
2023-02-04T15:00:22.263Z,59.48
2023-02-04T15:03:07.564Z,59.17
2023-02-04T15:05:52.746Z,60.12
2023-02-04T15:08:38.338Z,60.08
2023-02-04T15:11:23.536Z,60.49
2023-02-04T15:14:09.109Z,60.31
2023-02-04T15:16:54.539Z,60.92
2023-02-04T15:19:39.992Z,61.54
2023-02-04T15:22:25.499Z,61.30
2023-02-04T15:25:13.085Z,61.53
2023-02-04T15:27:58.889Z,61.98
2023-02-04T15:30:44.278Z,62.23
2023-02-04T15:33:29.928Z,62.29
2023-02-04T15:36:15.523Z,62.59
2023-02-04T15:39:00.949Z,63.07
2023-02-04T15:41:46.219Z,63.13
2023-02-04T15:44:31.543Z,63.30
2023-02-04T15:47:16.811Z,63.17
2023-02-04T15:50:04.024Z,63.11
2023-02-04T15:52:50.901Z,63.34
2023-02-04T15:55:36.271Z,63.56
2023-02-04T15:58:21.792Z,63.35
2023-02-04T16:01:07.121Z,63.67
2023-02-04T16:03:56.430Z,63.63
2023-02-04T16:06:47.517Z,63.45
2023-02-04T16:09:40.100Z,63.41
2023-02-04T16:12:25.563Z,63.31
2023-02-04T16:15:11.264Z,63.45
2023-02-04T16:17:57.098Z,63.63
2023-02-04T16:20:42.914Z,63.39
2023-02-04T16:23:28.240Z,63.62
2023-02-04T16:26:13.674Z,63.73
2023-02-04T16:28:58.981Z,63.40
2023-02-04T16:31:44.714Z,63.79
2023-02-04T16:34:30.109Z,63.81
2023-02-04T16:37:15.607Z,64.05
2023-02-04T16:40:01.081Z,64.92
2023-02-04T16:42:46.784Z,65.05
2023-02-04T16:45:32.596Z,64.60
2023-02-04T16:48:18.269Z,64.80
2023-02-04T16:51:04.592Z,65.51
2023-02-04T16:53:50.517Z,65.54
2023-02-04T16:56:36.530Z,65.91
2023-02-04T16:59:22.196Z,65.75
2023-02-04T17:02:07.778Z,66.02
2023-02-04T17:04:53.555Z,66.57
2023-02-04T17:07:39.471Z,66.67
2023-02-04T17:10:44.785Z,66.81
2023-02-04T17:13:30.539Z,66.94
2023-02-04T17:16:18.683Z,66.98
2023-02-04T17:19:05.585Z,67.26
2023-02-04T17:21:51.501Z,66.99
2023-02-04T17:24:42.622Z,67.62
2023-02-04T17:27:28.245Z,67.58
2023-02-04T17:30:14.118Z,67.63
2023-02-04T17:32:59.539Z,67.99
2023-02-04T17:35:45.145Z,67.71
2023-02-04T17:38:31.548Z,68.25
2023-02-04T17:41:17.637Z,68.25
2023-02-04T17:44:03.612Z,68.46
2023-02-04T17:46:48.762Z,68.60
2023-02-04T17:49:34.505Z,68.85
2023-02-04T17:52:20.183Z,68.83
2023-02-04T17:55:31.149Z,69.03
2023-02-04T17:58:21.998Z,69.19
2023-02-04T18:01:14.259Z,69.37
2023-02-04T18:03:59.816Z,69.64
2023-02-04T18:06:47.005Z,69.51
2023-02-04T18:09:32.704Z,69.83
2023-02-04T18:12:19.510Z,69.87
2023-02-04T18:15:28.375Z,69.67
2023-02-04T18:18:36.474Z,70.11
2023-02-04T18:21:33.705Z,69.90
2023-02-04T18:24:27.219Z,70.20
2023-02-04T18:27:15.465Z,70.03
2023-02-04T18:30:04.169Z,70.03
2023-02-04T18:32:49.993Z,70.24
2023-02-04T18:35:42.904Z,70.13
2023-02-04T18:38:29.489Z,70.39
2023-02-04T18:41:17.816Z,70.38
2023-02-04T18:44:38.119Z,70.46
2023-02-04T18:47:29.554Z,70.65
2023-02-04T18:50:29.995Z,70.93
2023-02-04T18:53:15.903Z,70.79
2023-02-04T18:56:02.246Z,71.06
2023-02-04T18:58:49.268Z,71.25
2023-02-04T19:01:38.972Z,71.30
2023-02-04T19:04:26.331Z,71.22
2023-02-04T19:07:13.391Z,71.46
2023-02-04T19:09:59.570Z,71.39
2023-02-04T19:12:45.211Z,71.05
2023-02-04T19:15:37.094Z,71.07
2023-02-04T19:18:28.118Z,71.47
2023-02-04T19:21:21.170Z,70.65
2023-02-04T19:24:20.928Z,71.02
2023-02-04T19:27:29.265Z,70.67
2023-02-04T19:30:27.008Z,70.28
2023-02-04T19:33:19.786Z,70.59
2023-02-04T19:36:23.524Z,70.11
2023-02-04T19:39:40.499Z,70.05
2023-02-04T19:42:36.945Z,69.56
2023-02-04T19:45:25.566Z,69.40
2023-02-04T19:48:21.745Z,69.39
2023-02-04T19:51:21.202Z,69.56
2023-02-04T19:54:37.957Z,69.16
2023-02-04T19:57:26.508Z,69.36
2023-02-04T20:00:33.981Z,69.37
2023-02-04T20:03:33.330Z,69.28
2023-02-04T20:06:37.401Z,69.06
2023-02-04T20:09:25.236Z,69.32
2023-02-04T20:12:18.188Z,68.96
2023-02-04T20:15:19.103Z,69.53
2023-02-04T20:18:32.029Z,68.55
2023-02-04T20:21:17.632Z,69.54
2023-02-04T20:24:13.924Z,69.33
2023-02-04T20:26:59.537Z,69.33
2023-02-04T20:29:45.140Z,69.87
2023-02-04T20:32:34.811Z,69.92
2023-02-04T20:35:19.940Z,69.95
2023-02-04T20:38:16.468Z,69.91
2023-02-04T20:41:13.613Z,70.04
2023-02-04T20:43:58.899Z,70.29
2023-02-04T20:46:44.530Z,70.13
2023-02-04T20:49:40.628Z,70.24
2023-02-04T20:52:41.477Z,70.15
2023-02-04T20:55:34.770Z,70.13
2023-02-04T20:58:27.232Z,70.61
2023-02-04T21:01:37.500Z,70.29
2023-02-04T21:04:37.043Z,70.42
2023-02-04T21:07:23.221Z,70.46
2023-02-04T21:10:09.145Z,70.77
2023-02-04T21:12:59.421Z,70.71
2023-02-04T21:15:44.870Z,70.67
2023-02-04T21:18:30.321Z,70.94
2023-02-04T21:21:15.813Z,71.04
2023-02-04T21:24:01.137Z,71.16
2023-02-04T21:26:48.116Z,71.48
2023-02-04T21:29:33.936Z,71.25
2023-02-04T21:32:19.302Z,71.32
2023-02-04T21:35:04.859Z,71.41
2023-02-04T21:38:03.260Z,71.48
2023-02-04T21:40:49.156Z,71.54
2023-02-04T21:43:34.721Z,71.81
2023-02-04T21:46:23.196Z,71.85
2023-02-04T21:49:09.306Z,72.09
2023-02-04T21:51:54.626Z,71.91
2023-02-04T21:54:39.924Z,71.83
2023-02-04T21:57:25.460Z,72.02
2023-02-04T22:00:12.063Z,71.91
2023-02-04T22:02:57.442Z,71.93
2023-02-04T22:05:44.053Z,71.66
2023-02-04T22:08:29.661Z,71.95
2023-02-04T22:11:15.353Z,72.24
2023-02-04T22:14:00.834Z,71.78
2023-02-04T22:16:47.035Z,72.00
2023-02-04T22:19:32.322Z,71.73
2023-02-04T22:22:18.110Z,71.93
2023-02-04T22:25:04.101Z,72.10
2023-02-04T22:27:49.782Z,72.02
2023-02-04T22:30:35.285Z,71.89
2023-02-04T22:33:20.496Z,72.15
2023-02-04T22:36:06.343Z,72.30
2023-02-04T22:38:54.436Z,71.84
2023-02-04T22:41:39.845Z,72.02
2023-02-04T22:44:25.424Z,71.88
2023-02-04T22:47:10.928Z,72.18
2023-02-04T22:49:56.366Z,72.09
2023-02-04T22:52:43.873Z,72.03
2023-02-04T22:55:29.464Z,72.07
2023-02-04T22:58:14.762Z,72.38
2023-02-04T23:01:00.120Z,72.12
2023-02-04T23:03:45.445Z,72.38
2023-02-04T23:06:30.766Z,72.44
2023-02-04T23:09:16.554Z,72.28
2023-02-04T23:12:12.734Z,72.37
2023-02-04T23:14:58.303Z,72.70
2023-02-04T23:17:43.762Z,72.19
2023-02-04T23:20:29.249Z,72.47
2023-02-04T23:23:17.521Z,72.66
2023-02-04T23:26:03.500Z,72.81
2023-02-04T23:28:48.786Z,72.84
2023-02-04T23:31:34.241Z,72.87
2023-02-04T23:34:19.499Z,72.92
2023-02-04T23:37:05.143Z,72.81
2023-02-04T23:39:50.750Z,73.10
2023-02-04T23:42:36.057Z,72.88
2023-02-04T23:45:21.276Z,73.14
2023-02-04T23:48:06.936Z,73.18
2023-02-04T23:50:52.152Z,72.82
2023-02-04T23:53:37.576Z,73.27
2023-02-04T23:56:22.983Z,73.29
2023-02-04T23:59:08.513Z,73.48
